createdAt,value
2022-12-25T00:01:35.634Z,5.41
2022-12-25T00:06:38.584Z,5.37
2022-12-25T00:11:41.598Z,5.36
2022-12-25T00:16:44.680Z,5.31
2022-12-25T00:21:47.662Z,5.38
2022-12-25T00:26:50.608Z,5.42
2022-12-25T00:31:53.608Z,5.59
2022-12-25T00:36:56.655Z,5.69
2022-12-25T00:42:17.956Z,5.65
2022-12-25T00:47:21.106Z,5.58
2022-12-25T00:52:24.129Z,5.48
2022-12-25T00:57:27.040Z,5.38
2022-12-25T01:02:30.098Z,5.35
2022-12-25T01:07:33.340Z,5.45
2022-12-25T01:12:40.266Z,5.56
2022-12-25T01:17:43.619Z,5.64
2022-12-25T01:22:46.602Z,5.72
2022-12-25T01:27:49.545Z,5.75
2022-12-25T01:32:52.460Z,5.73
2022-12-25T01:37:55.587Z,5.80
2022-12-25T01:42:58.553Z,5.89
2022-12-25T01:48:06.751Z,5.95
2022-12-25T01:53:09.965Z,5.97
2022-12-25T01:58:13.316Z,5.91
2022-12-25T02:03:16.343Z,5.88
2022-12-25T02:08:22.146Z,5.84
2022-12-25T02:13:25.179Z,5.86
2022-12-25T02:18:43.922Z,5.93
2022-12-25T02:24:18.649Z,6.00
2022-12-25T02:29:30.504Z,6.01
2022-12-25T02:35:10.243Z,5.95
2022-12-25T02:40:22.732Z,5.89
2022-12-25T02:45:59.436Z,5.93
2022-12-25T02:51:25.107Z,5.99
2022-12-25T02:56:48.474Z,6.02
2022-12-25T03:02:10.482Z,6.07
2022-12-25T03:07:22.661Z,6.05
2022-12-25T03:12:55.705Z,6.01
2022-12-25T03:18:03.305Z,6.00
2022-12-25T03:23:27.351Z,6.05
2022-12-25T03:28:30.390Z,6.14
2022-12-25T03:34:15.707Z,6.13
2022-12-25T03:39:56.125Z,6.08
2022-12-25T03:45:34.372Z,6.12
2022-12-25T03:51:15.620Z,6.16
2022-12-25T03:56:39.041Z,6.15
2022-12-25T04:02:00.490Z,6.11
2022-12-25T04:07:21.908Z,6.14
2022-12-25T04:12:43.639Z,6.22
2022-12-25T04:18:05.384Z,6.27
2022-12-25T04:23:26.950Z,6.26
2022-12-25T04:28:48.658Z,6.23
2022-12-25T04:34:10.354Z,6.17
2022-12-25T04:39:13.397Z,6.21
2022-12-25T04:44:16.349Z,6.32
2022-12-25T04:49:19.276Z,6.39
2022-12-25T04:54:22.220Z,6.42
2022-12-25T04:59:25.262Z,6.40
2022-12-25T05:04:28.209Z,6.39
2022-12-25T05:09:31.116Z,6.43
2022-12-25T05:14:34.071Z,6.52
2022-12-25T05:19:37.026Z,6.54
2022-12-25T05:24:39.988Z,6.52
2022-12-25T05:29:42.957Z,6.48
2022-12-25T05:34:45.901Z,6.44
2022-12-25T05:39:48.851Z,6.45
2022-12-25T05:44:51.838Z,6.49
2022-12-25T05:49:54.782Z,6.52
2022-12-25T05:54:57.732Z,6.55
2022-12-25T06:00:00.714Z,6.52
2022-12-25T06:05:04.984Z,6.48
2022-12-25T06:10:08.998Z,6.41
2022-12-25T06:15:12.627Z,6.39
2022-12-25T06:20:15.589Z,6.46
2022-12-25T06:25:18.704Z,6.49
2022-12-25T06:30:21.678Z,6.48
2022-12-25T06:35:24.628Z,6.42
2022-12-25T06:40:27.574Z,6.41
2022-12-25T06:45:30.617Z,6.44
2022-12-25T06:50:33.585Z,6.51
2022-12-25T06:55:36.541Z,6.56
2022-12-25T07:00:39.472Z,6.57
2022-12-25T07:05:44.980Z,6.55
2022-12-25T07:10:47.897Z,6.51
2022-12-25T07:16:03.325Z,6.52
2022-12-25T07:21:12.983Z,6.59
2022-12-25T07:26:17.501Z,6.61
2022-12-25T07:31:20.505Z,6.61
2022-12-25T07:36:23.414Z,6.59
2022-12-25T07:41:26.419Z,6.62
2022-12-25T07:46:29.453Z,6.70
2022-12-25T07:51:32.523Z,6.75
2022-12-25T07:56:35.590Z,6.73
2022-12-25T08:01:38.662Z,6.70
2022-12-25T08:06:41.771Z,6.73
2022-12-25T08:11:49.455Z,6.78
2022-12-25T08:16:52.503Z,6.83
2022-12-25T08:21:55.901Z,6.81
2022-12-25T08:26:58.865Z,6.80
2022-12-25T08:32:01.923Z,6.83
2022-12-25T08:37:05.046Z,6.88
2022-12-25T08:42:08.002Z,6.92
2022-12-25T08:47:10.899Z,6.92
2022-12-25T08:52:13.872Z,6.94
2022-12-25T08:57:16.806Z,6.99
2022-12-25T09:02:19.934Z,7.09
2022-12-25T09:07:23.148Z,7.13
2022-12-25T09:12:26.105Z,7.14
2022-12-25T09:17:29.035Z,7.18
2022-12-25T09:22:32.000Z,7.20
2022-12-25T09:27:34.952Z,7.22
2022-12-25T09:32:40.418Z,7.22
2022-12-25T09:37:43.470Z,7.23
2022-12-25T09:42:48.706Z,7.27
2022-12-25T09:47:55.402Z,7.29
2022-12-25T09:53:29.403Z,7.29
2022-12-25T09:58:34.297Z,7.33
2022-12-25T10:04:12.865Z,7.36
2022-12-25T10:09:31.345Z,7.32
2022-12-25T10:15:11.851Z,7.33
2022-12-25T10:20:29.785Z,7.39
2022-12-25T10:25:32.956Z,7.39
2022-12-25T10:30:36.047Z,7.38
2022-12-25T10:35:40.082Z,7.48
2022-12-25T10:41:06.314Z,7.52
2022-12-25T10:46:12.579Z,7.55
2022-12-25T10:51:35.476Z,7.56
2022-12-25T10:56:38.483Z,7.65
2022-12-25T11:01:41.492Z,7.74
2022-12-25T11:06:44.612Z,7.78
2022-12-25T11:11:48.190Z,7.79
2022-12-25T11:16:51.159Z,7.83
2022-12-25T11:21:58.113Z,7.90
2022-12-25T11:27:06.536Z,7.91
2022-12-25T11:32:45.837Z,7.87
2022-12-25T11:37:52.464Z,7.84
2022-12-25T11:43:16.291Z,7.91
2022-12-25T11:48:47.341Z,7.96
2022-12-25T11:54:01.169Z,7.96
2022-12-25T11:59:18.288Z,7.92
2022-12-25T12:04:43.136Z,7.93
2022-12-25T12:09:58.474Z,8.02
2022-12-25T12:15:21.235Z,8.13
2022-12-25T12:20:34.689Z,8.15
2022-12-25T12:25:43.874Z,8.14
2022-12-25T12:31:07.345Z,8.10
2022-12-25T12:36:14.660Z,8.13
2022-12-25T12:41:18.263Z,8.18
2022-12-25T12:46:30.567Z,8.20
2022-12-25T12:51:37.095Z,8.13
2022-12-25T12:56:40.041Z,8.06
2022-12-25T13:01:58.596Z,8.10
2022-12-25T13:07:51.255Z,8.19
2022-12-25T13:13:03.034Z,8.26
2022-12-25T13:18:10.018Z,8.25
2022-12-25T13:23:37.914Z,8.20
2022-12-25T13:28:41.448Z,8.11
2022-12-25T13:34:23.377Z,8.11
2022-12-25T13:39:27.187Z,8.17
2022-12-25T13:44:42.040Z,8.19
2022-12-25T13:49:46.108Z,8.17
2022-12-25T13:55:11.833Z,8.09
2022-12-25T14:00:25.760Z,8.06
2022-12-25T14:05:39.761Z,8.09
2022-12-25T14:10:50.358Z,8.09
2022-12-25T14:15:54.627Z,8.03
2022-12-25T14:21:03.431Z,7.96
2022-12-25T14:26:06.704Z,7.91
2022-12-25T14:31:11.980Z,7.89
2022-12-25T14:36:15.161Z,7.95
2022-12-25T14:41:34.680Z,7.97
2022-12-25T14:46:37.730Z,7.93
2022-12-25T14:51:43.357Z,7.83
2022-12-25T14:56:52.970Z,7.70
2022-12-25T15:02:03.622Z,7.56
2022-12-25T15:07:09.615Z,7.52
2022-12-25T15:12:13.252Z,7.52
2022-12-25T15:17:29.816Z,7.54
2022-12-25T15:22:54.038Z,7.62
2022-12-25T15:27:56.978Z,7.53
2022-12-25T15:32:59.920Z,7.43
2022-12-25T15:38:02.846Z,7.37
2022-12-25T15:43:11.319Z,7.38
2022-12-25T15:48:23.864Z,7.48
2022-12-25T15:53:27.063Z,7.54
2022-12-25T15:58:30.050Z,7.48
2022-12-25T16:03:33.164Z,7.44
2022-12-25T16:08:36.192Z,7.42
2022-12-25T16:13:39.184Z,7.44
2022-12-25T16:18:47.412Z,7.52
2022-12-25T16:23:50.931Z,7.53
2022-12-25T16:28:53.876Z,7.51
2022-12-25T16:33:56.873Z,7.43
2022-12-25T16:38:59.862Z,7.35
2022-12-25T16:44:10.172Z,7.26
2022-12-25T16:49:13.207Z,7.22
2022-12-25T16:54:16.187Z,7.22
2022-12-25T16:59:19.186Z,7.23
2022-12-25T17:04:22.149Z,7.19
2022-12-25T17:09:25.202Z,7.07
2022-12-25T17:14:28.142Z,6.86
2022-12-25T17:19:31.293Z,6.57
2022-12-25T17:24:36.356Z,6.40
2022-12-25T17:29:40.053Z,6.36
2022-12-25T17:34:42.976Z,6.35
2022-12-25T17:39:47.167Z,6.31
2022-12-25T17:44:50.219Z,6.19
2022-12-25T17:49:53.207Z,6.07
2022-12-25T17:54:56.117Z,5.96
2022-12-25T17:59:59.443Z,5.85
2022-12-25T18:05:02.367Z,5.73
2022-12-25T18:10:06.056Z,5.68
2022-12-25T18:15:10.027Z,5.80
2022-12-25T18:20:13.131Z,5.92
2022-12-25T18:25:16.153Z,5.95
2022-12-25T18:30:20.135Z,6.01
2022-12-25T18:35:29.051Z,6.06
2022-12-25T18:40:32.476Z,6.11
2022-12-25T18:45:35.853Z,6.13
2022-12-25T18:50:40.929Z,6.17
2022-12-25T18:55:44.110Z,6.13
2022-12-25T19:00:47.128Z,5.91
2022-12-25T19:05:52.918Z,5.69
2022-12-25T19:10:55.886Z,5.57
2022-12-25T19:15:59.623Z,5.46
2022-12-25T19:21:04.027Z,5.40
2022-12-25T19:26:08.827Z,5.39
2022-12-25T19:31:12.743Z,5.33
2022-12-25T19:36:16.766Z,5.28
2022-12-25T19:41:19.973Z,5.21
2022-12-25T19:46:27.527Z,5.19
2022-12-25T19:51:52.133Z,5.18
2022-12-25T19:56:55.926Z,5.11
2022-12-25T20:01:58.951Z,5.06
2022-12-25T20:07:02.056Z,5.02
2022-12-25T20:12:05.852Z,4.95
2022-12-25T20:17:15.314Z,4.86
2022-12-25T20:22:18.786Z,4.86
2022-12-25T20:27:21.827Z,4.80
2022-12-25T20:32:25.076Z,4.66
2022-12-25T20:37:28.149Z,4.61
2022-12-25T20:42:31.062Z,4.62
2022-12-25T20:47:34.512Z,4.54
2022-12-25T20:52:37.463Z,4.61
2022-12-25T20:57:40.595Z,4.64
2022-12-25T21:02:43.993Z,4.57
2022-12-25T21:07:47.172Z,4.53
2022-12-25T21:12:50.140Z,4.45
2022-12-25T21:17:53.133Z,4.36
2022-12-25T21:22:56.112Z,4.33
2022-12-25T21:27:59.096Z,4.36
2022-12-25T21:33:20.630Z,4.42
2022-12-25T21:38:23.557Z,4.44
2022-12-25T21:43:26.529Z,4.45
2022-12-25T21:48:29.487Z,4.42
2022-12-25T21:53:32.422Z,4.41
2022-12-25T21:58:35.388Z,4.48
2022-12-25T22:03:38.501Z,4.49
2022-12-25T22:08:41.667Z,4.41
2022-12-25T22:14:03.373Z,4.32
2022-12-25T22:19:25.125Z,4.29
2022-12-25T22:24:28.129Z,4.26
2022-12-25T22:29:31.067Z,4.22
2022-12-25T22:34:34.136Z,4.19
2022-12-25T22:39:37.348Z,4.18
2022-12-25T22:44:40.683Z,4.20
2022-12-25T22:49:43.666Z,4.21
2022-12-25T22:54:46.679Z,4.31
2022-12-25T22:59:53.091Z,4.45
2022-12-25T23:04:56.143Z,4.57
2022-12-25T23:09:59.185Z,4.60
2022-12-25T23:15:02.204Z,4.58
2022-12-25T23:20:25.134Z,4.52
2022-12-25T23:25:46.929Z,4.55
2022-12-25T23:30:49.975Z,4.61
2022-12-25T23:35:52.946Z,4.72
2022-12-25T23:40:55.891Z,4.79
2022-12-25T23:45:58.908Z,4.77
2022-12-25T23:51:07.017Z,4.65
2022-12-25T23:56:10.648Z,4.52
